Brasstown, NC (28902)

11:10 PM EST on February 11, 2016 (GMT -0500)
Elevation 1780 | | Change Station
CLOSE
Current Station
Personal Weather Station
Location: Brasstown, NC
Elevation: 1780 ft
Nearby Weather Stations

Elev 1780 ft 35.02 °N, 83.97 °W | Updated 1 minute ago

Clear
Clear
26.9 °F
Feels Like 27 °F
N
0.0
Wind Variable Wind from NW
Gusts 0.0 mph

Today
High -- | Low -- °F
--% Chance of Precip.
Yesterday
High -- | Low -- °F
Precip. -- in
Pressure 30.20 in
Visibility 10.0 miles
Clouds Clear
Windchill 27 °F
Dew Point 23 °F
Humidity 84%
Rainfall 0.04 in
Snow Depth Not available.
7:26 AM 6:14 PM
Waxing Crescent, 17% visible
METAR KRHP 120355Z AUTO 00000KT 10SM CLR M03/M05 A3020 RMK AO2 T10321050
Pressure 30.20 in
Visibility 10.0 miles
Clouds Clear
Windchill 27 °F
Dew Point 23 °F
Humidity 84%
Rainfall 0.04 in
Snow Depth Not available.
7:26 AM 6:14 PM
Waxing Crescent, 17% visible
METAR KRHP 120355Z AUTO 00000KT 10SM CLR M03/M05 A3020 RMK AO2 T10321050

10-Day Weather Forecast

Almanac

Astronomy

Feb. 11, 2016 Rise Set
Actual Time
Civil Twilight
Nautical Twilight
Astronomical Twilight
Moon
Length of Visible Light
Length of Day
Tomorrow will be .
, % of the Moon is Illuminated

Today's Extremes

State Highs State Lows

Community

WunderPhotos

Upload Photos

1,892,265 photos uploaded!

WunderBlog® & News

Nearby

Air Quality

  Air Quality AQ Index Pollutant
Not available.

Snow Depth

Station Depth Elevation

Earthquake Activity

City Distance Mag. Time & Date
Minimum magnitude displayed is 2.5.

Coastal Water Temperatures

Place Temperature

Stations

Nearby Weather Stations

Station Location Temp. Windchill Dew Point Humidity Wind Precip. Elev Updated Type
                   

Watches & Warnings

There are currently no watches in effect.